Flight Track Log - Related Links

Times and Time Zones

All times are in EDT time to prevent confusion due to time zone crossing. See the CXA884 flight status page for this flight to view local times or setup timezone preferences in your user account.

Time Position Orientation Groundspeed Altitude Reporting Facility
EDT Latitude Longitude Course Direction KTS MPH feet Rate Location/Type
08:54AM 25.2201 121.2286 297° West  Level Estimated
08:55AM 25.2352 121.1962 297° West  Level Estimated
08:56AM 25.2502 121.1638 297° West  Level Estimated
08:57AM 25.2652 121.1315 297° West  Level Estimated
08:58AM 25.2802 121.0991 297° West  Level Estimated
08:59AM 25.2952 121.0667 297° West  Level Estimated
09:00AM 25.3102 121.0343 297° West  Level Estimated
09:01AM 25.3252 121.0019 297° West  Level Estimated
09:02AM 25.3402 120.9695 297° West  Level Estimated
09:03AM 25.3552 120.9371 297° West  Level Estimated
09:04AM 25.3702 120.9046 297° West  Level Estimated
09:05AM 25.3851 120.8722 297° West  Level Estimated
09:06AM 25.4001 120.8398 297° West  Level Estimated
09:07AM 25.4150 120.8073 297° West  Level Estimated
09:08AM 25.4300 120.7749 297° West  Level Estimated
09:09AM 25.4449 120.7424 297° West  Level Estimated
09:10AM 25.4598 120.7099 297° West  Level Estimated
09:11AM 25.4747 120.6774 297° West  Level Estimated
09:12AM 25.4897 120.6449 297° West  Level Estimated
09:13AM 25.5046 120.6124 297° West  Level Estimated
09:14AM 25.5195 120.5799 297° West  Level Estimated
09:15AM 25.5343 120.5474 297° West  Level Estimated
09:16AM 25.5492 120.5149 297° West  Level Estimated
09:17AM 25.5641 120.4824 297° West  Level Estimated
09:18AM 25.5790 120.4498 297° West  Level Estimated
09:19AM 25.5938 120.4173 297° West  Level Estimated
09:20AM 25.6087 120.3847 297° West  Level Estimated
09:21AM 25.6235 120.3521 297° West  Level Estimated
09:22AM 25.6384 120.3196 297° West  Level Estimated
09:23AM 25.6532 120.2870 297° West  Level Estimated
09:24AM 25.6680 120.2544 297° West  Level Estimated
09:25AM 25.6828 120.2218 297° West  Level Estimated
09:26AM 25.6977 120.1892 297° West  Level Estimated
09:27AM 25.7125 120.1566 297° West  Level Estimated
09:28AM 25.7273 120.1240 297° West  Level Estimated
09:29AM 25.7421 120.0913 297° West  Level Estimated
09:30AM 25.7568 120.0587 297° West  Level Estimated
09:31AM 25.7716 120.0261 297° West  Level Estimated
09:32AM 25.7864 119.9934 297° West  Level Estimated
09:33AM 25.8011 119.9607 297° West  Level Estimated
09:34AM 25.8159 119.9281 297° West  Level Estimated
09:35AM 25.8306 119.8954 297° West  Level Estimated
09:36AM 25.8454 119.8627 297° West  Level Estimated
09:37AM 25.8601 119.8300 297° West  Level Estimated
09:38AM 25.8748 119.7973 297° West  Level Estimated
09:39AM 25.8895 119.7646 297° West  Level Estimated
09:40AM 25.9042 119.7319 297° West  Level Estimated
09:41AM 25.9189 119.6992 297° West  Level Estimated
09:42AM 25.9336 119.6664 297° West  Level Estimated
09:43AM 25.9351 119.6633 297° West  Level Estimated
09:44AM 25.9351 119.6633 North  Level Estimated
09:45AM 25.9351 119.6633 North  Level Estimated
09:46AM 25.9351 119.6633 North  Level Estimated
09:47AM 25.9351 119.6633 North  Level Estimated
09:48AM 25.9351 119.6633 North  Level Estimated
09:49AM 25.9351 119.6633 North  Level Estimated
09:50AM 25.9351 119.6633 North  Level Estimated
09:51AM 25.9351 119.6633 North  Level Estimated
09:52AM 25.9351 119.6633 North  Level Estimated
09:53AM 25.9351 119.6633 North  Level Estimated
09:54AM 25.9351 119.6633 North  Level Estimated
09:55AM 25.9351 119.6633 North  Level Estimated
09:56AM 25.9351 119.6633 North  Level Estimated
09:57AM 25.9351 119.6633 North  Level Estimated
09:58AM 25.9351 119.6633 North  Level Estimated

Login

Don't have an account? Register now (free) for customized features, flight alerts, and more!